New Bern, NC

2:55 AM EST on December 08, 2016 (GMT -0500)
Bridgeton | | Change Station

Elev -7 ft 35.13 °N, 77.03 °W | Updated 11 seconds ago

Overcast
Overcast
49.5 °F
Feels Like 48 °F
N
4.5
Wind Variable Wind from ESE
Gusts 4.9 mph

Today
High -- | Low -- °F
--% Chance of Precip.
Yesterday
High -- | Low -- °F
Precip. -- in
Pressure 30.08 in
Visibility 10.0 miles
Clouds Overcast 5000 ft
Windchill 48 °F
Dew Point 47 °F
Humidity 92%
Rainfall 0.00 in
Snow Depth Not available.
7:04 AM 4:56 PM
First Quarter, 61% visible
METAR KEWN 080654Z AUTO 00000KT 10SM OVC050 08/07 A3008 RMK AO2 SLP184 T00830072
Pressure 30.08 in
Visibility 10.0 miles
Clouds Overcast 5000 ft
Windchill 48 °F
Dew Point 47 °F
Humidity 92%
Rainfall 0.00 in
Snow Depth Not available.
7:04 AM 4:56 PM
First Quarter, 61% visible
METAR KEWN 080654Z AUTO 00000KT 10SM OVC050 08/07 A3008 RMK AO2 SLP184 T00830072

10-Day Weather Forecast

Almanac

Astronomy

Dec. 08, 2016 Rise Set
Actual Time
Civil Twilight
Nautical Twilight
Astronomical Twilight
Moon
Length of Visible Light
Length of Day
Tomorrow will be .
, % of the Moon is Illuminated

Today's Extremes

State Highs State Lows

Community

WunderPhotos

Upload Photos

1,956,259 photos uploaded!

WunderBlog® & News

Nearby

Air Quality

  Air Quality AQ Index Pollutant
Not available.

Snow Depth

Station Depth Elevation

Earthquake Activity

City Distance Mag. Time & Date
Minimum magnitude displayed is 2.5.

Coastal Water Temperatures

Place Temperature

Stations

Nearby Weather Stations

Station Location Temp. Windchill Dew Point Humidity Wind Precip. Elev Updated Type
                   

Watches & Warnings

There are currently no watches in effect.